< < Back
Terminal Aerodrome Forecast


Current Version              Previous Versions:   1  2  3  4  5  6  7  8  9  

Terminal Aerodrome Forecast

108
FTUS42 KCHS 090412 AAB
TAFSAV
TAF AMD
KSAV 090412Z 0904/0924 27010KT P6SM BKN060
     FM090600 27012G20KT P6SM FEW040
     FM091600 27024G32KT P6SM SCT035 BKN050=

Latest METAR

467
SAUS80 KWBC 092200 RRA
MTRSAV
METAR KSAV 092153Z 29011G19KT 10SM SCT065 BKN075 08/M06 A2986 RMK AO2
SLP112 T00781056


USA.gov is the U.S. government's official web portal to all federal, state and local government web resources and services.